createdAt,value
2022-09-11T00:01:04.436Z,67.80
2022-09-11T00:03:31.777Z,80.63
2022-09-11T00:06:01.991Z,67.67
2022-09-11T00:08:29.071Z,70.43
2022-09-11T00:10:56.236Z,83.23
2022-09-11T00:13:24.645Z,77.43
2022-09-11T00:15:52.362Z,79.53
2022-09-11T00:18:20.555Z,89.40
2022-09-11T00:20:48.617Z,84.70
2022-09-11T00:23:16.046Z,90.30
2022-09-11T00:25:43.168Z,85.77
2022-09-11T00:28:12.231Z,87.97
2022-09-11T00:30:40.678Z,87.63
2022-09-11T00:33:07.778Z,89.60
2022-09-11T00:35:34.861Z,101.10
2022-09-11T00:38:01.984Z,82.37
2022-09-11T00:40:29.066Z,110.73
2022-09-11T00:42:56.407Z,96.23
2022-09-11T00:45:24.290Z,101.37
2022-09-11T00:47:53.502Z,100.60
2022-09-11T00:50:22.227Z,81.83
2022-09-11T00:52:53.247Z,111.23
2022-09-11T00:55:21.749Z,102.93
2022-09-11T00:57:50.484Z,107.97
2022-09-11T01:00:17.635Z,110.20
2022-09-11T01:02:47.139Z,117.20
2022-09-11T01:05:15.601Z,120.57
2022-09-11T01:07:43.126Z,116.73
2022-09-11T01:10:10.609Z,107.77
2022-09-11T01:12:42.507Z,90.87
2022-09-11T01:15:14.668Z,106.97
2022-09-11T01:17:46.838Z,100.80
2022-09-11T01:20:21.767Z,104.33
2022-09-11T01:22:57.594Z,102.97
2022-09-11T01:25:26.028Z,114.30
2022-09-11T01:27:54.767Z,103.03
2022-09-11T01:30:22.468Z,103.80
2022-09-11T01:33:01.127Z,101.93
2022-09-11T01:35:32.463Z,96.43
2022-09-11T01:38:01.713Z,101.80
2022-09-11T01:40:32.358Z,89.90
2022-09-11T01:43:04.026Z,91.53
2022-09-11T01:45:32.278Z,88.23
2022-09-11T01:48:00.487Z,89.80
2022-09-11T01:50:29.435Z,85.87
2022-09-11T01:52:58.561Z,84.70
2022-09-11T01:55:29.256Z,90.37
2022-09-11T01:57:59.287Z,87.03
2022-09-11T02:00:30.038Z,84.20
2022-09-11T02:02:59.997Z,96.43
2022-09-11T02:05:29.652Z,94.37
2022-09-11T02:07:59.922Z,90.60
2022-09-11T02:10:29.226Z,95.63
2022-09-11T02:12:58.915Z,89.60
2022-09-11T02:15:26.681Z,93.73
2022-09-11T02:18:00.700Z,83.00
2022-09-11T02:20:29.492Z,91.87
2022-09-11T02:22:57.494Z,101.20
2022-09-11T02:25:24.725Z,84.97
2022-09-11T02:27:55.916Z,91.40
2022-09-11T02:30:23.392Z,98.77
2022-09-11T02:32:50.493Z,95.83
2022-09-11T02:35:19.088Z,93.00
2022-09-11T02:37:49.718Z,92.20
2022-09-11T02:40:26.940Z,86.63
2022-09-11T02:43:07.169Z,99.33
2022-09-11T02:45:36.282Z,92.27
2022-09-11T02:48:13.337Z,91.40
2022-09-11T02:50:43.353Z,107.43
2022-09-11T02:53:14.877Z,94.17
2022-09-11T02:55:49.646Z,102.77
2022-09-11T02:58:18.180Z,98.83
2022-09-11T03:00:45.690Z,97.77
2022-09-11T03:03:12.928Z,116.30
2022-09-11T03:05:42.557Z,99.13
2022-09-11T03:08:09.660Z,103.23
2022-09-11T03:10:36.971Z,108.40
2022-09-11T03:13:08.751Z,106.77
2022-09-11T03:15:35.870Z,109.60
2022-09-11T03:18:03.013Z,130.60
2022-09-11T03:20:30.143Z,143.23
2022-09-11T03:22:58.597Z,150.43
2022-09-11T03:25:25.770Z,164.83
2022-09-11T03:27:53.222Z,152.53
2022-09-11T03:30:20.672Z,141.53
2022-09-11T03:32:49.082Z,132.60
2022-09-11T03:35:16.271Z,156.03
2022-09-11T03:37:43.417Z,160.90
2022-09-11T03:40:12.507Z,149.90
2022-09-11T03:42:39.629Z,155.87
2022-09-11T03:45:07.044Z,154.53
2022-09-11T03:47:34.162Z,160.53
2022-09-11T03:50:01.300Z,189.77
2022-09-11T03:52:28.430Z,181.07
2022-09-11T03:54:55.573Z,195.27
2022-09-11T03:57:25.328Z,190.33
2022-09-11T03:59:53.511Z,204.17
2022-09-11T04:02:20.734Z,198.57
2022-09-11T04:04:48.035Z,195.23
2022-09-11T04:07:15.150Z,193.40
2022-09-11T04:09:43.445Z,180.13
2022-09-11T04:12:13.566Z,175.20
2022-09-11T04:14:42.200Z,206.13
2022-09-11T04:17:09.475Z,221.30
2022-09-11T04:19:38.700Z,202.43
2022-09-11T04:22:05.807Z,196.60
2022-09-11T04:24:37.982Z,217.00
2022-09-11T04:27:05.364Z,231.83
2022-09-11T04:29:33.738Z,230.70
2022-09-11T04:32:02.918Z,237.30
2022-09-11T04:34:34.187Z,220.80
2022-09-11T04:37:02.775Z,216.27
2022-09-11T04:39:30.930Z,203.30
2022-09-11T04:41:58.408Z,202.53
2022-09-11T04:44:25.634Z,224.40
2022-09-11T04:46:53.123Z,205.03
2022-09-11T04:49:22.571Z,211.03
2022-09-11T04:51:50.014Z,214.93
2022-09-11T04:54:19.978Z,223.20
2022-09-11T04:56:47.327Z,223.27
2022-09-11T04:59:16.296Z,213.87
2022-09-11T05:01:58.686Z,205.07
2022-09-11T05:04:27.278Z,197.23
2022-09-11T05:06:55.669Z,211.63
2022-09-11T05:09:23.799Z,225.53
2022-09-11T05:11:50.943Z,220.07
2022-09-11T05:14:18.039Z,215.00
2022-09-11T05:16:47.240Z,228.80
2022-09-11T05:19:16.474Z,230.30
2022-09-11T05:21:46.625Z,237.40
2022-09-11T05:24:14.448Z,238.90
2022-09-11T05:26:41.800Z,240.93
2022-09-11T05:29:10.734Z,246.43
2022-09-11T05:31:44.166Z,238.97
2022-09-11T05:34:14.032Z,252.67
2022-09-11T05:36:41.231Z,220.23
2022-09-11T05:39:10.026Z,225.27
2022-09-11T05:41:37.856Z,200.07
2022-09-11T05:44:04.998Z,204.17
2022-09-11T05:46:33.645Z,201.37
2022-09-11T05:49:03.267Z,196.50
2022-09-11T05:51:30.334Z,184.50
2022-09-11T05:53:58.855Z,191.13
2022-09-11T05:56:28.386Z,168.83
2022-09-11T05:58:59.438Z,167.63
2022-09-11T06:01:34.698Z,168.23
2022-09-11T06:04:12.913Z,156.40
2022-09-11T06:06:42.742Z,162.17
2022-09-11T06:09:10.077Z,145.13
2022-09-11T06:11:38.553Z,140.10
2022-09-11T06:14:06.302Z,125.47
2022-09-11T06:16:33.843Z,118.07
2022-09-11T06:19:08.809Z,103.60
2022-09-11T06:21:35.908Z,95.90
2022-09-11T06:24:16.248Z,95.50
2022-09-11T06:26:45.140Z,76.37
2022-09-11T06:29:12.276Z,81.03
2022-09-11T06:31:41.025Z,79.03
2022-09-11T06:34:09.122Z,85.10
2022-09-11T06:36:36.361Z,91.53
2022-09-11T06:39:07.101Z,86.83
2022-09-11T06:41:35.396Z,78.20
2022-09-11T06:44:08.877Z,90.77
2022-09-11T06:46:37.186Z,77.53
2022-09-11T06:49:04.328Z,85.30
2022-09-11T06:51:31.421Z,78.67
2022-09-11T06:53:59.358Z,82.20
2022-09-11T06:56:30.360Z,86.57
2022-09-11T06:58:57.519Z,82.57
2022-09-11T07:01:27.007Z,94.60
2022-09-11T07:03:56.867Z,98.33
2022-09-11T07:06:25.845Z,95.90
2022-09-11T07:08:54.562Z,95.20
2022-09-11T07:11:21.731Z,102.30
2022-09-11T07:13:48.881Z,95.93
2022-09-11T07:16:17.220Z,101.10
2022-09-11T07:18:51.841Z,78.30
2022-09-11T07:21:22.724Z,88.63
2022-09-11T07:23:53.763Z,76.60
2022-09-11T07:26:22.706Z,74.77
2022-09-11T07:28:53.182Z,73.00
2022-09-11T07:31:21.965Z,80.07
2022-09-11T07:33:50.579Z,91.13
2022-09-11T07:36:20.129Z,80.80
2022-09-11T07:38:50.716Z,89.73
2022-09-11T07:41:18.852Z,86.73
2022-09-11T07:43:47.304Z,78.73
2022-09-11T07:46:15.218Z,100.33
2022-09-11T07:48:42.848Z,101.07
2022-09-11T07:51:11.091Z,82.73
2022-09-11T07:53:40.403Z,73.67
2022-09-11T07:56:08.365Z,83.10
2022-09-11T07:58:35.617Z,120.83
2022-09-11T08:01:03.484Z,74.93
2022-09-11T08:03:30.770Z,72.80
2022-09-11T08:05:58.327Z,71.00
2022-09-11T08:08:25.750Z,78.77
2022-09-11T08:10:54.374Z,81.43
2022-09-11T08:13:21.475Z,74.07
2022-09-11T08:15:48.861Z,70.63
2022-09-11T08:18:16.018Z,70.33
2022-09-11T08:20:43.748Z,66.33
2022-09-11T08:23:11.091Z,61.53
2022-09-11T08:25:39.137Z,62.70
2022-09-11T08:28:09.407Z,70.60
2022-09-11T08:30:36.605Z,55.80
2022-09-11T08:33:03.916Z,58.33
2022-09-11T08:35:32.659Z,55.03
2022-09-11T08:38:00.721Z,70.77
2022-09-11T08:40:28.415Z,66.70
2022-09-11T08:43:00.114Z,79.40
2022-09-11T08:45:30.477Z,59.20
2022-09-11T08:47:59.448Z,56.33
2022-09-11T08:50:27.761Z,56.57
2022-09-11T08:52:56.689Z,54.10
2022-09-11T08:55:30.285Z,62.20
2022-09-11T08:58:00.849Z,63.13
2022-09-11T09:00:33.068Z,58.97
2022-09-11T09:03:21.765Z,60.77
2022-09-11T09:05:54.680Z,49.20
2022-09-11T09:08:29.497Z,53.50
2022-09-11T09:11:01.070Z,56.93
2022-09-11T09:13:49.968Z,56.70
2022-09-11T09:16:25.600Z,55.67
2022-09-11T09:18:56.193Z,60.87
2022-09-11T09:21:24.502Z,45.47
2022-09-11T09:23:53.598Z,53.03
2022-09-11T09:26:20.922Z,47.27
2022-09-11T09:28:49.752Z,53.27
2022-09-11T09:31:19.956Z,43.40
2022-09-11T09:33:50.466Z,47.20
2022-09-11T09:36:20.230Z,50.43
2022-09-11T09:38:47.679Z,39.90
2022-09-11T09:41:27.701Z,50.33
2022-09-11T09:44:00.086Z,46.00
2022-09-11T09:46:35.149Z,42.20
2022-09-11T09:49:03.632Z,43.40
2022-09-11T09:51:30.757Z,47.77
2022-09-11T09:53:59.816Z,48.03
2022-09-11T09:56:27.088Z,49.33
2022-09-11T09:58:57.802Z,52.73
2022-09-11T10:01:39.832Z,46.77
2022-09-11T10:04:11.293Z,49.10
2022-09-11T10:06:38.517Z,48.77
2022-09-11T10:09:05.750Z,40.80
2022-09-11T10:11:32.945Z,44.63
2022-09-11T10:14:00.100Z,46.93
2022-09-11T10:16:27.993Z,45.37
2022-09-11T10:18:56.222Z,47.33
2022-09-11T10:21:26.216Z,41.63
2022-09-11T10:23:54.705Z,64.60
2022-09-11T10:26:24.723Z,37.07
2022-09-11T10:28:52.746Z,37.27
2022-09-11T10:31:19.990Z,42.40
2022-09-11T10:33:48.335Z,40.63
2022-09-11T10:36:22.090Z,34.47
2022-09-11T10:38:50.675Z,37.53
2022-09-11T10:41:19.597Z,34.87
2022-09-11T10:43:49.344Z,32.53
2022-09-11T10:46:27.198Z,38.27
2022-09-11T10:48:55.523Z,32.33
2022-09-11T10:51:23.743Z,30.67
2022-09-11T10:53:57.334Z,33.47
2022-09-11T10:56:24.880Z,31.63
2022-09-11T10:58:54.967Z,30.50
2022-09-11T11:01:22.337Z,33.00
2022-09-11T11:03:49.593Z,34.37
2022-09-11T11:06:22.478Z,27.13
2022-09-11T11:09:13.611Z,32.17
2022-09-11T11:11:49.357Z,32.43
2022-09-11T11:14:27.046Z,35.30
2022-09-11T11:16:58.122Z,34.60
2022-09-11T11:19:33.922Z,33.43
2022-09-11T11:22:04.386Z,31.33
2022-09-11T11:24:45.129Z,30.20
2022-09-11T11:27:27.874Z,33.17
2022-09-11T11:30:03.930Z,35.77
2022-09-11T11:32:37.009Z,33.93
2022-09-11T11:35:19.005Z,34.20
2022-09-11T11:37:47.649Z,32.83
2022-09-11T11:40:18.528Z,30.93
2022-09-11T11:42:55.393Z,30.80
2022-09-11T11:45:24.240Z,33.10
2022-09-11T11:47:52.201Z,28.10
2022-09-11T11:50:27.429Z,25.47
2022-09-11T11:53:00.893Z,30.73
2022-09-11T11:55:29.096Z,31.80
2022-09-11T11:58:00.884Z,31.23
2022-09-11T12:00:29.143Z,28.27
2022-09-11T12:02:58.669Z,36.00
2022-09-11T12:05:27.149Z,30.07
2022-09-11T12:07:54.400Z,33.30
2022-09-11T12:10:23.921Z,33.40
2022-09-11T12:12:53.416Z,34.90
2022-09-11T12:15:22.467Z,32.90
2022-09-11T12:17:58.250Z,33.93
2022-09-11T12:20:33.276Z,36.73
2022-09-11T12:23:00.796Z,34.60
2022-09-11T12:25:45.574Z,31.07
2022-09-11T12:28:21.071Z,31.20
2022-09-11T12:30:55.932Z,29.90
2022-09-11T12:33:41.709Z,74.37
2022-09-11T12:36:10.818Z,40.60
2022-09-11T12:38:40.600Z,28.50
2022-09-11T12:41:13.378Z,26.43
2022-09-11T12:43:47.454Z,28.70
2022-09-11T12:46:37.722Z,27.53
2022-09-11T12:49:22.191Z,24.10
2022-09-11T12:51:54.116Z,24.90
2022-09-11T12:54:23.736Z,25.67
2022-09-11T12:56:53.000Z,20.73
2022-09-11T12:59:24.001Z,21.00
2022-09-11T13:01:53.109Z,20.83
2022-09-11T13:04:22.549Z,18.73
2022-09-11T13:06:52.552Z,24.63
2022-09-11T13:09:22.067Z,18.80
2022-09-11T13:11:49.960Z,21.73
2022-09-11T13:14:45.484Z,20.30
2022-09-11T13:17:16.470Z,17.23
2022-09-11T13:19:43.591Z,20.90
2022-09-11T13:22:20.993Z,23.40
2022-09-11T13:24:48.377Z,19.23
2022-09-11T13:27:18.088Z,20.47
2022-09-11T13:29:48.194Z,20.57
2022-09-11T13:32:17.094Z,22.90
2022-09-11T13:34:45.181Z,21.00
2022-09-11T13:37:13.242Z,20.20
2022-09-11T13:39:40.818Z,18.70
2022-09-11T13:42:12.779Z,16.97
2022-09-11T13:44:42.270Z,21.70
2022-09-11T13:47:16.723Z,18.03
2022-09-11T13:49:44.013Z,15.83
2022-09-11T13:52:11.966Z,14.33
2022-09-11T13:54:41.660Z,17.50
2022-09-11T13:57:16.551Z,14.77
2022-09-11T13:59:47.383Z,13.30
2022-09-11T14:02:24.627Z,11.10
2022-09-11T14:04:52.326Z,12.70
2022-09-11T14:07:20.777Z,15.00
2022-09-11T14:09:48.836Z,16.83
2022-09-11T14:12:15.961Z,15.10
2022-09-11T14:14:43.216Z,15.77
2022-09-11T14:17:11.368Z,13.33
2022-09-11T14:19:43.273Z,13.40
2022-09-11T14:22:15.246Z,10.63
2022-09-11T14:24:49.679Z,12.17
2022-09-11T14:27:31.674Z,10.80
2022-09-11T14:29:58.856Z,12.50
2022-09-11T14:32:31.109Z,10.73
2022-09-11T14:34:59.781Z,12.67
2022-09-11T14:37:28.062Z,13.70
2022-09-11T14:39:56.307Z,11.30
2022-09-11T14:42:26.371Z,12.60
2022-09-11T14:44:53.450Z,10.80
2022-09-11T14:47:21.524Z,10.53
2022-09-11T14:49:49.096Z,10.50
2022-09-11T14:52:19.497Z,8.80
2022-09-11T14:54:47.337Z,15.03
2022-09-11T14:57:20.348Z,11.63
2022-09-11T14:59:48.014Z,16.00
2022-09-11T15:02:15.819Z,11.60
2022-09-11T15:04:42.936Z,11.07
2022-09-11T15:07:10.783Z,15.70
2022-09-11T15:09:39.215Z,13.17
2022-09-11T15:12:06.749Z,14.27
2022-09-11T15:14:54.829Z,13.03
2022-09-11T15:17:21.059Z,14.10
2022-09-11T15:19:48.122Z,15.80
2022-09-11T15:22:15.237Z,12.80
2022-09-11T15:24:43.688Z,12.93
2022-09-11T15:27:10.822Z,12.13
2022-09-11T15:29:37.981Z,12.43
2022-09-11T15:32:05.136Z,14.83
2022-09-11T15:34:32.237Z,12.90
2022-09-11T15:36:59.326Z,16.70
2022-09-11T15:39:26.528Z,16.67
2022-09-11T15:41:55.225Z,18.47
2022-09-11T15:44:23.112Z,19.50
2022-09-11T15:46:50.773Z,16.77
2022-09-11T15:49:18.223Z,19.27
2022-09-11T15:51:45.331Z,22.27
2022-09-11T15:54:12.861Z,19.87
2022-09-11T15:56:39.941Z,16.07
2022-09-11T15:59:09.587Z,18.43
2022-09-11T16:01:36.680Z,20.27
2022-09-11T16:04:04.547Z,19.30
2022-09-11T16:06:32.667Z,17.93
2022-09-11T16:09:00.379Z,20.97
2022-09-11T16:11:27.672Z,20.87
2022-09-11T16:13:54.781Z,17.83
2022-09-11T16:16:23.320Z,17.93
2022-09-11T16:18:50.908Z,16.50
2022-09-11T16:21:18.811Z,19.50
2022-09-11T16:23:49.819Z,21.77
2022-09-11T16:26:20.848Z,18.60
2022-09-11T16:28:48.383Z,18.70
2022-09-11T16:31:15.506Z,19.43
2022-09-11T16:33:44.970Z,20.77
2022-09-11T16:36:17.062Z,19.30
2022-09-11T16:38:44.679Z,17.97
2022-09-11T16:41:12.457Z,22.70
2022-09-11T16:43:39.923Z,20.20
2022-09-11T16:46:07.760Z,20.50
2022-09-11T16:48:35.220Z,19.00
2022-09-11T16:51:04.041Z,17.40
2022-09-11T16:53:31.798Z,18.20
2022-09-11T16:55:58.894Z,19.87
2022-09-11T16:58:26.011Z,31.00
2022-09-11T17:00:53.140Z,19.57
2022-09-11T17:03:20.265Z,18.70
2022-09-11T17:05:47.466Z,17.53
2022-09-11T17:08:15.947Z,18.37
2022-09-11T17:10:43.438Z,20.17
2022-09-11T17:13:10.672Z,19.20
2022-09-11T17:15:37.849Z,17.43
2022-09-11T17:18:04.976Z,20.07
2022-09-11T17:20:32.116Z,15.17
2022-09-11T17:22:59.226Z,19.90
2022-09-11T17:25:27.725Z,18.30
2022-09-11T17:27:54.861Z,20.30
2022-09-11T17:30:22.098Z,16.47
2022-09-11T17:32:49.200Z,17.60
2022-09-11T17:35:16.316Z,20.80
2022-09-11T17:37:43.690Z,17.27
2022-09-11T17:40:11.294Z,17.93
2022-09-11T17:42:39.975Z,19.47
2022-09-11T17:45:07.458Z,18.77
2022-09-11T17:47:34.590Z,20.20
2022-09-11T17:50:01.705Z,20.23
2022-09-11T17:52:28.892Z,19.73
2022-09-11T17:54:55.989Z,20.57
2022-09-11T17:57:23.130Z,19.47
2022-09-11T17:59:51.553Z,22.70
2022-09-11T18:02:19.267Z,24.93
2022-09-11T18:04:47.530Z,19.40
2022-09-11T18:07:14.616Z,16.87
2022-09-11T18:09:41.871Z,19.23
2022-09-11T18:12:08.947Z,19.13
2022-09-11T18:14:36.845Z,22.13
2022-09-11T18:17:05.629Z,18.33
2022-09-11T18:19:32.916Z,24.20
2022-09-11T18:21:59.972Z,21.30
2022-09-11T18:24:27.254Z,26.07
2022-09-11T18:27:00.048Z,21.43
2022-09-11T18:29:29.969Z,22.80
2022-09-11T18:31:57.648Z,27.13
2022-09-11T18:34:27.126Z,23.47
2022-09-11T18:36:54.295Z,24.97
2022-09-11T18:39:21.717Z,27.90
2022-09-11T18:41:49.782Z,28.00
2022-09-11T18:44:19.824Z,28.50
2022-09-11T18:46:47.352Z,22.87
2022-09-11T18:49:14.849Z,24.33
2022-09-11T18:51:43.636Z,26.17
2022-09-11T18:54:12.195Z,32.27
2022-09-11T18:56:39.284Z,27.93
2022-09-11T18:59:06.384Z,27.70
2022-09-11T19:01:33.564Z,28.60
2022-09-11T19:04:01.002Z,29.00
2022-09-11T19:06:28.836Z,27.23
2022-09-11T19:08:57.286Z,27.40
2022-09-11T19:11:25.316Z,28.93
2022-09-11T19:13:53.095Z,27.40
2022-09-11T19:16:20.950Z,31.47
2022-09-11T19:18:48.390Z,33.00
2022-09-11T19:21:16.384Z,28.50
2022-09-11T19:23:44.150Z,32.73
2022-09-11T19:26:13.814Z,30.90
2022-09-11T19:28:41.617Z,30.80
2022-09-11T19:31:09.352Z,29.60
2022-09-11T19:33:37.502Z,27.90
2022-09-11T19:36:06.113Z,40.00
2022-09-11T19:38:34.104Z,36.60
2022-09-11T19:41:01.205Z,35.07
2022-09-11T19:43:30.282Z,32.13
2022-09-11T19:46:01.618Z,32.40
2022-09-11T19:48:28.712Z,38.17
2022-09-11T19:50:55.806Z,36.90
2022-09-11T19:53:22.900Z,36.20
2022-09-11T19:55:53.394Z,39.57
2022-09-11T19:58:23.888Z,37.60
2022-09-11T20:00:52.722Z,42.90
2022-09-11T20:03:19.891Z,40.40
2022-09-11T20:05:47.017Z,40.53
2022-09-11T20:08:16.320Z,37.73
2022-09-11T20:10:45.654Z,41.43
2022-09-11T20:13:13.086Z,37.80
2022-09-11T20:15:40.677Z,41.70
2022-09-11T20:18:09.167Z,41.87
2022-09-11T20:20:36.957Z,48.50
2022-09-11T20:23:04.140Z,46.10
2022-09-11T20:25:31.677Z,44.43
2022-09-11T20:28:00.430Z,48.17
2022-09-11T20:30:27.748Z,45.37
2022-09-11T20:32:54.823Z,45.97
2022-09-11T20:35:23.265Z,55.60
2022-09-11T20:37:51.334Z,45.80
2022-09-11T20:40:18.642Z,42.63
2022-09-11T20:42:45.922Z,44.27
2022-09-11T20:45:13.031Z,46.07
2022-09-11T20:47:40.093Z,47.93
2022-09-11T20:50:07.972Z,43.57
2022-09-11T20:52:39.599Z,42.67
2022-09-11T20:55:07.810Z,52.50
2022-09-11T20:57:34.905Z,50.63
2022-09-11T21:00:02.166Z,44.23
2022-09-11T21:02:29.229Z,47.03
2022-09-11T21:04:56.330Z,54.33
2022-09-11T21:07:23.407Z,52.60
2022-09-11T21:09:51.853Z,45.40
2022-09-11T21:12:18.936Z,46.50
2022-09-11T21:14:46.022Z,47.83
2022-09-11T21:17:13.122Z,51.30
2022-09-11T21:19:40.219Z,46.77
2022-09-11T21:22:07.291Z,47.43
2022-09-11T21:24:34.679Z,46.73
2022-09-11T21:27:03.091Z,51.33
2022-09-11T21:29:30.198Z,44.50
2022-09-11T21:31:57.277Z,51.47
2022-09-11T21:34:24.380Z,53.73
2022-09-11T21:36:51.476Z,51.20
2022-09-11T21:39:18.626Z,47.90
2022-09-11T21:41:45.726Z,46.73
2022-09-11T21:44:14.198Z,55.43
2022-09-11T21:46:41.363Z,52.37
2022-09-11T21:49:09.715Z,48.33
2022-09-11T21:51:36.829Z,61.47
2022-09-11T21:54:03.964Z,53.23
2022-09-11T21:56:32.001Z,71.00
2022-09-11T21:58:59.504Z,52.70
2022-09-11T22:01:28.634Z,57.40
2022-09-11T22:03:55.790Z,52.23
2022-09-11T22:06:22.896Z,47.53
2022-09-11T22:08:50.037Z,54.43
2022-09-11T22:11:17.395Z,52.00
2022-09-11T22:13:45.048Z,58.83
2022-09-11T22:16:13.478Z,58.57
2022-09-11T22:18:42.159Z,51.77
2022-09-11T22:21:09.991Z,58.20
2022-09-11T22:23:37.121Z,69.60
2022-09-11T22:26:05.831Z,57.73
2022-09-11T22:28:33.023Z,55.43
2022-09-11T22:31:00.133Z,66.13
2022-09-11T22:33:27.516Z,61.67
2022-09-11T22:35:56.002Z,62.40
2022-09-11T22:38:23.109Z,56.37
2022-09-11T22:40:53.686Z,91.97
2022-09-11T22:43:20.800Z,68.23
2022-09-11T22:45:51.262Z,60.40
2022-09-11T22:48:18.441Z,59.33
2022-09-11T22:50:45.531Z,67.73
2022-09-11T22:53:13.961Z,55.20
2022-09-11T22:55:43.390Z,65.73
2022-09-11T22:58:10.486Z,52.23
2022-09-11T23:00:37.676Z,62.07
2022-09-11T23:03:04.881Z,68.03
2022-09-11T23:05:32.008Z,59.67
2022-09-11T23:07:59.095Z,64.47
2022-09-11T23:10:27.534Z,59.80
2022-09-11T23:12:54.868Z,72.97
2022-09-11T23:15:21.986Z,69.40
2022-09-11T23:17:49.098Z,89.47
2022-09-11T23:20:16.337Z,75.47
2022-09-11T23:22:43.465Z,76.47
2022-09-11T23:25:10.650Z,67.63
2022-09-11T23:27:39.150Z,75.17
2022-09-11T23:30:06.606Z,69.43
2022-09-11T23:32:33.759Z,72.77
2022-09-11T23:35:00.851Z,68.97
2022-09-11T23:37:28.086Z,80.20
2022-09-11T23:39:55.198Z,79.50
2022-09-11T23:42:22.328Z,72.27
2022-09-11T23:44:50.741Z,71.60
2022-09-11T23:47:17.854Z,79.63
2022-09-11T23:49:44.954Z,90.20
2022-09-11T23:52:12.058Z,75.77
2022-09-11T23:54:39.183Z,67.90
2022-09-11T23:57:06.533Z,76.90
2022-09-11T23:59:36.224Z,87.00
